sensor_id;sensor_type;location;lat;lon;timestamp;P1;durP1;ratioP1;P2;durP2;ratioP2
6442;SDS011;3254;47.372;8.512;2023-02-02T00:00:55;8.38;;;2.35;;
6442;SDS011;3254;47.372;8.512;2023-02-02T00:03:23;7.47;;;1.85;;
6442;SDS011;3254;47.372;8.512;2023-02-02T00:05:52;7.57;;;1.80;;
6442;SDS011;3254;47.372;8.512;2023-02-02T00:08:18;11.85;;;1.77;;
6442;SDS011;3254;47.372;8.512;2023-02-02T00:10:45;2.85;;;1.88;;
6442;SDS011;3254;47.372;8.512;2023-02-02T00:13:11;6.88;;;1.98;;
6442;SDS011;3254;47.372;8.512;2023-02-02T00:15:38;6.68;;;1.70;;
6442;SDS011;3254;47.372;8.512;2023-02-02T00:18:04;4.18;;;1.73;;
6442;SDS011;3254;47.372;8.512;2023-02-02T00:20:30;4.57;;;1.67;;
6442;SDS011;3254;47.372;8.512;2023-02-02T00:22:58;5.25;;;2.15;;
6442;SDS011;3254;47.372;8.512;2023-02-02T00:25:24;5.60;;;1.83;;
6442;SDS011;3254;47.372;8.512;2023-02-02T00:27:49;1.93;;;1.83;;
6442;SDS011;3254;47.372;8.512;2023-02-02T00:30:15;10.70;;;2.27;;
6442;SDS011;3254;47.372;8.512;2023-02-02T00:32:41;9.10;;;1.87;;
6442;SDS011;3254;47.372;8.512;2023-02-02T00:35:07;13.47;;;2.10;;
6442;SDS011;3254;47.372;8.512;2023-02-02T00:37:36;9.70;;;2.50;;
6442;SDS011;3254;47.372;8.512;2023-02-02T00:40:05;2.22;;;1.70;;
6442;SDS011;3254;47.372;8.512;2023-02-02T00:42:32;5.45;;;2.10;;
6442;SDS011;3254;47.372;8.512;2023-02-02T00:44:57;12.63;;;3.70;;
6442;SDS011;3254;47.372;8.512;2023-02-02T00:47:45;8.18;;;2.55;;
6442;SDS011;3254;47.372;8.512;2023-02-02T00:50:14;8.82;;;2.00;;
6442;SDS011;3254;47.372;8.512;2023-02-02T00:52:44;12.55;;;2.85;;
6442;SDS011;3254;47.372;8.512;2023-02-02T00:55:11;8.10;;;2.03;;
6442;SDS011;3254;47.372;8.512;2023-02-02T00:57:38;9.90;;;2.08;;
6442;SDS011;3254;47.372;8.512;2023-02-02T01:00:05;6.10;;;2.03;;
6442;SDS011;3254;47.372;8.512;2023-02-02T01:02:33;11.40;;;2.22;;
6442;SDS011;3254;47.372;8.512;2023-02-02T01:04:59;15.07;;;2.20;;
6442;SDS011;3254;47.372;8.512;2023-02-02T01:07:25;8.53;;;2.57;;
6442;SDS011;3254;47.372;8.512;2023-02-02T01:09:52;8.63;;;1.67;;
6442;SDS011;3254;47.372;8.512;2023-02-02T01:12:17;5.77;;;1.60;;
6442;SDS011;3254;47.372;8.512;2023-02-02T01:14:43;8.13;;;2.23;;
6442;SDS011;3254;47.372;8.512;2023-02-02T01:17:08;3.67;;;1.20;;
6442;SDS011;3254;47.372;8.512;2023-02-02T01:19:34;4.03;;;2.00;;
6442;SDS011;3254;47.372;8.512;2023-02-02T01:22:00;7.73;;;1.93;;
6442;SDS011;3254;47.372;8.512;2023-02-02T01:24:26;8.10;;;2.20;;
6442;SDS011;3254;47.372;8.512;2023-02-02T01:26:52;8.23;;;2.00;;
6442;SDS011;3254;47.372;8.512;2023-02-02T01:29:18;12.00;;;2.20;;
6442;SDS011;3254;47.372;8.512;2023-02-02T01:31:45;13.15;;;2.42;;
6442;SDS011;3254;47.372;8.512;2023-02-02T01:34:12;10.70;;;2.15;;
6442;SDS011;3254;47.372;8.512;2023-02-02T01:36:38;15.90;;;3.03;;
6442;SDS011;3254;47.372;8.512;2023-02-02T01:39:05;8.67;;;2.00;;
6442;SDS011;3254;47.372;8.512;2023-02-02T01:41:30;11.27;;;1.80;;
6442;SDS011;3254;47.372;8.512;2023-02-02T01:43:59;14.53;;;2.23;;
6442;SDS011;3254;47.372;8.512;2023-02-02T01:46:29;9.35;;;2.00;;
6442;SDS011;3254;47.372;8.512;2023-02-02T01:49:10;4.72;;;2.22;;
6442;SDS011;3254;47.372;8.512;2023-02-02T01:51:55;4.63;;;2.15;;
6442;SDS011;3254;47.372;8.512;2023-02-02T01:54:27;10.57;;;2.38;;
6442;SDS011;3254;47.372;8.512;2023-02-02T01:57:01;7.70;;;2.20;;
6442;SDS011;3254;47.372;8.512;2023-02-02T01:59:30;8.60;;;2.00;;
6442;SDS011;3254;47.372;8.512;2023-02-02T02:01:58;8.15;;;3.00;;
6442;SDS011;3254;47.372;8.512;2023-02-02T02:04:26;5.78;;;2.15;;
6442;SDS011;3254;47.372;8.512;2023-02-02T02:06:55;9.60;;;2.20;;
6442;SDS011;3254;47.372;8.512;2023-02-02T02:09:20;3.23;;;2.00;;
6442;SDS011;3254;47.372;8.512;2023-02-02T02:11:46;12.77;;;2.20;;
6442;SDS011;3254;47.372;8.512;2023-02-02T02:14:12;7.90;;;2.13;;
6442;SDS011;3254;47.372;8.512;2023-02-02T02:26:50;8.73;;;3.25;;
6442;SDS011;3254;47.372;8.512;2023-02-02T02:29:32;6.60;;;1.88;;
6442;SDS011;3254;47.372;8.512;2023-02-02T02:35:01;6.45;;;2.30;;
6442;SDS011;3254;47.372;8.512;2023-02-02T02:42:43;6.18;;;2.13;;
6442;SDS011;3254;47.372;8.512;2023-02-02T02:45:11;4.60;;;1.88;;
6442;SDS011;3254;47.372;8.512;2023-02-02T02:47:39;7.55;;;2.80;;
6442;SDS011;3254;47.372;8.512;2023-02-02T02:50:06;13.68;;;2.72;;
6442;SDS011;3254;47.372;8.512;2023-02-02T02:52:32;14.95;;;2.80;;
6442;SDS011;3254;47.372;8.512;2023-02-02T02:54:59;7.60;;;3.75;;
6442;SDS011;3254;47.372;8.512;2023-02-02T03:03:23;15.57;;;3.22;;
6442;SDS011;3254;47.372;8.512;2023-02-02T03:06:17;10.30;;;3.00;;
6442;SDS011;3254;47.372;8.512;2023-02-02T03:08:57;7.25;;;2.65;;
6442;SDS011;3254;47.372;8.512;2023-02-02T03:11:29;7.22;;;2.40;;
6442;SDS011;3254;47.372;8.512;2023-02-02T03:13:55;18.80;;;3.10;;
6442;SDS011;3254;47.372;8.512;2023-02-02T03:16:21;6.45;;;2.55;;
6442;SDS011;3254;47.372;8.512;2023-02-02T03:18:46;15.80;;;3.00;;
6442;SDS011;3254;47.372;8.512;2023-02-02T03:21:15;11.85;;;2.70;;
6442;SDS011;3254;47.372;8.512;2023-02-02T03:23:40;9.33;;;2.60;;
6442;SDS011;3254;47.372;8.512;2023-02-02T03:26:06;8.30;;;2.20;;
6442;SDS011;3254;47.372;8.512;2023-02-02T03:28:31;6.50;;;2.80;;
6442;SDS011;3254;47.372;8.512;2023-02-02T03:30:58;8.15;;;3.58;;
6442;SDS011;3254;47.372;8.512;2023-02-02T03:33:26;12.52;;;2.92;;
6442;SDS011;3254;47.372;8.512;2023-02-02T03:35:55;9.23;;;2.58;;
6442;SDS011;3254;47.372;8.512;2023-02-02T03:38:20;3.33;;;2.08;;
6442;SDS011;3254;47.372;8.512;2023-02-02T03:40:46;11.90;;;3.07;;
6442;SDS011;3254;47.372;8.512;2023-02-02T03:43:12;11.13;;;3.13;;
6442;SDS011;3254;47.372;8.512;2023-02-02T03:45:44;7.80;;;2.00;;
6442;SDS011;3254;47.372;8.512;2023-02-02T03:48:09;5.30;;;2.37;;
6442;SDS011;3254;47.372;8.512;2023-02-02T03:50:35;11.90;;;2.60;;
6442;SDS011;3254;47.372;8.512;2023-02-02T03:53:02;6.95;;;3.00;;
6442;SDS011;3254;47.372;8.512;2023-02-02T03:55:30;14.00;;;3.47;;
6442;SDS011;3254;47.372;8.512;2023-02-02T03:57:56;8.43;;;2.58;;
6442;SDS011;3254;47.372;8.512;2023-02-02T04:00:23;13.77;;;3.00;;
6442;SDS011;3254;47.372;8.512;2023-02-02T04:02:49;4.90;;;3.00;;
6442;SDS011;3254;47.372;8.512;2023-02-02T04:05:14;15.37;;;3.30;;
6442;SDS011;3254;47.372;8.512;2023-02-02T04:07:42;6.82;;;3.22;;
6442;SDS011;3254;47.372;8.512;2023-02-02T04:10:07;7.23;;;2.30;;
6442;SDS011;3254;47.372;8.512;2023-02-02T04:12:33;9.60;;;3.50;;
6442;SDS011;3254;47.372;8.512;2023-02-02T04:14:59;7.70;;;2.83;;
6442;SDS011;3254;47.372;8.512;2023-02-02T04:17:25;5.63;;;2.60;;
6442;SDS011;3254;47.372;8.512;2023-02-02T04:19:50;10.53;;;2.70;;
6442;SDS011;3254;47.372;8.512;2023-02-02T04:22:21;8.93;;;2.40;;
6442;SDS011;3254;47.372;8.512;2023-02-02T04:24:47;8.80;;;2.90;;
6442;SDS011;3254;47.372;8.512;2023-02-02T04:27:13;8.17;;;2.30;;
6442;SDS011;3254;47.372;8.512;2023-02-02T04:29:38;9.07;;;2.73;;
6442;SDS011;3254;47.372;8.512;2023-02-02T04:32:04;17.60;;;4.43;;
6442;SDS011;3254;47.372;8.512;2023-02-02T04:34:30;3.33;;;2.30;;
6442;SDS011;3254;47.372;8.512;2023-02-02T04:36:55;10.60;;;2.40;;
6442;SDS011;3254;47.372;8.512;2023-02-02T04:39:21;4.03;;;2.17;;
6442;SDS011;3254;47.372;8.512;2023-02-02T04:41:47;4.97;;;2.40;;
6442;SDS011;3254;47.372;8.512;2023-02-02T04:44:13;12.90;;;2.90;;
6442;SDS011;3254;47.372;8.512;2023-02-02T04:46:43;5.35;;;3.17;;
6442;SDS011;3254;47.372;8.512;2023-02-02T04:49:09;9.30;;;2.30;;
6442;SDS011;3254;47.372;8.512;2023-02-02T04:51:36;5.70;;;2.83;;
6442;SDS011;3254;47.372;8.512;2023-02-02T04:54:03;15.15;;;2.22;;
6442;SDS011;3254;47.372;8.512;2023-02-02T04:56:32;2.80;;;2.17;;
6442;SDS011;3254;47.372;8.512;2023-02-02T04:58:59;19.02;;;2.55;;
6442;SDS011;3254;47.372;8.512;2023-02-02T05:01:24;5.90;;;2.70;;
6442;SDS011;3254;47.372;8.512;2023-02-02T05:03:51;5.90;;;2.33;;
6442;SDS011;3254;47.372;8.512;2023-02-02T05:06:18;3.92;;;2.30;;
6442;SDS011;3254;47.372;8.512;2023-02-02T05:08:45;5.33;;;2.10;;
6442;SDS011;3254;47.372;8.512;2023-02-02T05:11:14;6.43;;;2.47;;
6442;SDS011;3254;47.372;8.512;2023-02-02T05:13:48;10.43;;;2.15;;
6442;SDS011;3254;47.372;8.512;2023-02-02T05:16:17;7.80;;;2.30;;
6442;SDS011;3254;47.372;8.512;2023-02-02T05:18:50;15.38;;;3.05;;
6442;SDS011;3254;47.372;8.512;2023-02-02T05:21:17;8.38;;;2.30;;
6442;SDS011;3254;47.372;8.512;2023-02-02T05:23:44;9.85;;;2.55;;
6442;SDS011;3254;47.372;8.512;2023-02-02T05:26:11;7.40;;;2.23;;
6442;SDS011;3254;47.372;8.512;2023-02-02T05:28:40;5.57;;;2.17;;
6442;SDS011;3254;47.372;8.512;2023-02-02T05:31:07;5.35;;;2.08;;
6442;SDS011;3254;47.372;8.512;2023-02-02T05:33:35;20.23;;;2.60;;
6442;SDS011;3254;47.372;8.512;2023-02-02T05:36:02;7.80;;;4.33;;
6442;SDS011;3254;47.372;8.512;2023-02-02T05:38:29;4.13;;;2.05;;
6442;SDS011;3254;47.372;8.512;2023-02-02T05:40:55;2.63;;;1.83;;
6442;SDS011;3254;47.372;8.512;2023-02-02T05:43:25;9.75;;;2.55;;
6442;SDS011;3254;47.372;8.512;2023-02-02T05:45:52;6.40;;;1.80;;
6442;SDS011;3254;47.372;8.512;2023-02-02T05:48:22;4.30;;;1.80;;
6442;SDS011;3254;47.372;8.512;2023-02-02T05:50:56;7.55;;;1.73;;
6442;SDS011;3254;47.372;8.512;2023-02-02T05:53:27;9.02;;;1.85;;
6442;SDS011;3254;47.372;8.512;2023-02-02T05:55:55;3.97;;;2.72;;
6442;SDS011;3254;47.372;8.512;2023-02-02T05:58:20;8.65;;;2.13;;
6442;SDS011;3254;47.372;8.512;2023-02-02T06:00:47;5.40;;;1.87;;
6442;SDS011;3254;47.372;8.512;2023-02-02T06:03:13;6.50;;;2.22;;
6442;SDS011;3254;47.372;8.512;2023-02-02T06:05:39;6.20;;;1.63;;
6442;SDS011;3254;47.372;8.512;2023-02-02T06:08:04;4.53;;;2.07;;
6442;SDS011;3254;47.372;8.512;2023-02-02T06:10:30;3.07;;;2.00;;
6442;SDS011;3254;47.372;8.512;2023-02-02T06:12:56;8.23;;;2.33;;
6442;SDS011;3254;47.372;8.512;2023-02-02T06:15:23;3.25;;;1.60;;
6442;SDS011;3254;47.372;8.512;2023-02-02T06:17:51;6.10;;;1.90;;
6442;SDS011;3254;47.372;8.512;2023-02-02T06:20:18;7.25;;;2.28;;
6442;SDS011;3254;47.372;8.512;2023-02-02T06:22:43;5.07;;;1.60;;
6442;SDS011;3254;47.372;8.512;2023-02-02T06:25:15;5.10;;;2.03;;
6442;SDS011;3254;47.372;8.512;2023-02-02T06:27:41;8.13;;;1.93;;
6442;SDS011;3254;47.372;8.512;2023-02-02T06:30:09;6.07;;;2.10;;
6442;SDS011;3254;47.372;8.512;2023-02-02T06:32:35;6.70;;;1.98;;
6442;SDS011;3254;47.372;8.512;2023-02-02T06:35:02;15.02;;;2.03;;
6442;SDS011;3254;47.372;8.512;2023-02-02T06:37:29;6.45;;;2.00;;
6442;SDS011;3254;47.372;8.512;2023-02-02T06:39:54;6.73;;;1.87;;
6442;SDS011;3254;47.372;8.512;2023-02-02T06:42:20;5.23;;;1.80;;
6442;SDS011;3254;47.372;8.512;2023-02-02T06:44:45;1.93;;;1.70;;
6442;SDS011;3254;47.372;8.512;2023-02-02T06:47:11;6.60;;;2.10;;
6442;SDS011;3254;47.372;8.512;2023-02-02T06:49:36;7.23;;;2.63;;
6442;SDS011;3254;47.372;8.512;2023-02-02T06:52:02;4.73;;;1.60;;
6442;SDS011;3254;47.372;8.512;2023-02-02T06:54:28;8.97;;;2.07;;
6442;SDS011;3254;47.372;8.512;2023-02-02T06:56:54;7.77;;;2.10;;
6442;SDS011;3254;47.372;8.512;2023-02-02T06:59:20;3.43;;;1.80;;
6442;SDS011;3254;47.372;8.512;2023-02-02T07:01:50;3.97;;;2.20;;
6442;SDS011;3254;47.372;8.512;2023-02-02T07:04:18;7.35;;;2.10;;
6442;SDS011;3254;47.372;8.512;2023-02-02T07:06:47;3.38;;;1.90;;
6442;SDS011;3254;47.372;8.512;2023-02-02T07:09:13;6.70;;;1.80;;
6442;SDS011;3254;47.372;8.512;2023-02-02T07:11:38;9.70;;;2.77;;
6442;SDS011;3254;47.372;8.512;2023-02-02T07:14:04;7.23;;;2.07;;
6442;SDS011;3254;47.372;8.512;2023-02-02T07:16:30;5.68;;;2.13;;
6442;SDS011;3254;47.372;8.512;2023-02-02T07:18:56;17.97;;;3.83;;
6442;SDS011;3254;47.372;8.512;2023-02-02T07:21:22;14.37;;;2.23;;
6442;SDS011;3254;47.372;8.512;2023-02-02T07:23:50;6.25;;;2.00;;
6442;SDS011;3254;47.372;8.512;2023-02-02T07:26:16;3.80;;;1.37;;
6442;SDS011;3254;47.372;8.512;2023-02-02T07:28:43;6.60;;;2.33;;
6442;SDS011;3254;47.372;8.512;2023-02-02T07:31:14;4.75;;;1.90;;
6442;SDS011;3254;47.372;8.512;2023-02-02T07:33:44;9.35;;;2.10;;
6442;SDS011;3254;47.372;8.512;2023-02-02T07:36:12;3.55;;;2.10;;
6442;SDS011;3254;47.372;8.512;2023-02-02T07:38:41;8.07;;;1.92;;
6442;SDS011;3254;47.372;8.512;2023-02-02T07:41:07;4.63;;;2.15;;
6442;SDS011;3254;47.372;8.512;2023-02-02T07:43:32;6.60;;;1.80;;
6442;SDS011;3254;47.372;8.512;2023-02-02T07:46:02;3.27;;;1.47;;
6442;SDS011;3254;47.372;8.512;2023-02-02T07:48:34;4.80;;;1.40;;
6442;SDS011;3254;47.372;8.512;2023-02-02T07:51:01;3.97;;;1.88;;
6442;SDS011;3254;47.372;8.512;2023-02-02T07:53:28;6.45;;;1.77;;
6442;SDS011;3254;47.372;8.512;2023-02-02T07:56:15;3.75;;;1.88;;
6442;SDS011;3254;47.372;8.512;2023-02-02T07:58:42;6.13;;;1.80;;
6442;SDS011;3254;47.372;8.512;2023-02-02T08:01:09;1.83;;;1.40;;
6442;SDS011;3254;47.372;8.512;2023-02-02T08:03:37;3.15;;;1.80;;
6442;SDS011;3254;47.372;8.512;2023-02-02T08:06:07;4.22;;;1.73;;
6442;SDS011;3254;47.372;8.512;2023-02-02T08:08:41;5.03;;;1.50;;
6442;SDS011;3254;47.372;8.512;2023-02-02T08:11:08;4.68;;;1.65;;
6442;SDS011;3254;47.372;8.512;2023-02-02T08:13:35;4.15;;;1.60;;
6442;SDS011;3254;47.372;8.512;2023-02-02T08:16:02;4.47;;;1.30;;
6442;SDS011;3254;47.372;8.512;2023-02-02T08:18:30;4.35;;;1.33;;
6442;SDS011;3254;47.372;8.512;2023-02-02T08:20:58;10.30;;;2.15;;
6442;SDS011;3254;47.372;8.512;2023-02-02T08:23:25;3.38;;;1.88;;
6442;SDS011;3254;47.372;8.512;2023-02-02T08:25:51;1.42;;;1.15;;
6442;SDS011;3254;47.372;8.512;2023-02-02T08:28:17;8.32;;;1.90;;
6442;SDS011;3254;47.372;8.512;2023-02-02T08:30:43;8.03;;;1.53;;
6442;SDS011;3254;47.372;8.512;2023-02-02T08:33:09;2.88;;;1.30;;
6442;SDS011;3254;47.372;8.512;2023-02-02T08:35:39;7.67;;;2.00;;
6442;SDS011;3254;47.372;8.512;2023-02-02T08:38:05;5.78;;;1.40;;
6442;SDS011;3254;47.372;8.512;2023-02-02T08:40:31;7.73;;;1.93;;
6442;SDS011;3254;47.372;8.512;2023-02-02T08:42:57;1.97;;;1.30;;
6442;SDS011;3254;47.372;8.512;2023-02-02T08:45:23;4.07;;;1.52;;
6442;SDS011;3254;47.372;8.512;2023-02-02T08:47:49;3.83;;;1.55;;
6442;SDS011;3254;47.372;8.512;2023-02-02T08:50:20;5.97;;;1.30;;
6442;SDS011;3254;47.372;8.512;2023-02-02T08:52:46;10.95;;;1.65;;
6442;SDS011;3254;47.372;8.512;2023-02-02T08:55:12;9.80;;;1.67;;
6442;SDS011;3254;47.372;8.512;2023-02-02T08:57:38;1.60;;;1.50;;
6442;SDS011;3254;47.372;8.512;2023-02-02T09:00:07;3.25;;;1.48;;
6442;SDS011;3254;47.372;8.512;2023-02-02T09:02:34;4.90;;;1.52;;
6442;SDS011;3254;47.372;8.512;2023-02-02T09:04:59;3.53;;;1.47;;
6442;SDS011;3254;47.372;8.512;2023-02-02T09:07:25;4.30;;;2.57;;
6442;SDS011;3254;47.372;8.512;2023-02-02T09:09:51;3.47;;;1.77;;
6442;SDS011;3254;47.372;8.512;2023-02-02T09:12:19;8.55;;;1.75;;
6442;SDS011;3254;47.372;8.512;2023-02-02T09:14:45;4.20;;;2.03;;
6442;SDS011;3254;47.372;8.512;2023-02-02T09:17:12;10.73;;;1.97;;
6442;SDS011;3254;47.372;8.512;2023-02-02T09:19:38;1.65;;;1.30;;
6442;SDS011;3254;47.372;8.512;2023-02-02T09:22:04;4.93;;;1.30;;
6442;SDS011;3254;47.372;8.512;2023-02-02T09:24:30;7.10;;;1.80;;
6442;SDS011;3254;47.372;8.512;2023-02-02T09:26:55;2.40;;;1.30;;
6442;SDS011;3254;47.372;8.512;2023-02-02T09:29:21;1.43;;;1.30;;
6442;SDS011;3254;47.372;8.512;2023-02-02T09:31:48;2.83;;;1.73;;
6442;SDS011;3254;47.372;8.512;2023-02-02T09:34:14;3.40;;;1.47;;
6442;SDS011;3254;47.372;8.512;2023-02-02T09:36:41;2.83;;;1.30;;
6442;SDS011;3254;47.372;8.512;2023-02-02T09:39:09;3.38;;;1.30;;
6442;SDS011;3254;47.372;8.512;2023-02-02T09:47:04;3.10;;;1.20;;
6442;SDS011;3254;47.372;8.512;2023-02-02T09:49:54;6.13;;;1.23;;
6442;SDS011;3254;47.372;8.512;2023-02-02T09:52:32;3.65;;;1.30;;
6442;SDS011;3254;47.372;8.512;2023-02-02T09:55:11;2.25;;;1.55;;
6442;SDS011;3254;47.372;8.512;2023-02-02T09:58:20;1.25;;;1.00;;
6442;SDS011;3254;47.372;8.512;2023-02-02T10:08:41;2.65;;;1.40;;
6442;SDS011;3254;47.372;8.512;2023-02-02T10:14:49;3.50;;;1.27;;
6442;SDS011;3254;47.372;8.512;2023-02-02T10:17:15;5.28;;;1.77;;
6442;SDS011;3254;47.372;8.512;2023-02-02T10:20:16;4.70;;;1.40;;
6442;SDS011;3254;47.372;8.512;2023-02-02T10:23:03;2.03;;;1.50;;
6442;SDS011;3254;47.372;8.512;2023-02-02T10:25:35;2.25;;;1.20;;
6442;SDS011;3254;47.372;8.512;2023-02-02T10:28:10;7.45;;;1.40;;
6442;SDS011;3254;47.372;8.512;2023-02-02T10:30:43;3.92;;;1.85;;
6442;SDS011;3254;47.372;8.512;2023-02-02T10:33:14;8.25;;;1.20;;
6442;SDS011;3254;47.372;8.512;2023-02-02T10:36:10;2.60;;;1.50;;
6442;SDS011;3254;47.372;8.512;2023-02-02T10:38:47;1.77;;;1.40;;
6442;SDS011;3254;47.372;8.512;2023-02-02T10:46:45;1.88;;;1.02;;
6442;SDS011;3254;47.372;8.512;2023-02-02T10:49:23;4.18;;;1.65;;
6442;SDS011;3254;47.372;8.512;2023-02-02T10:52:03;4.60;;;1.20;;
6442;SDS011;3254;47.372;8.512;2023-02-02T10:54:52;5.43;;;1.90;;
6442;SDS011;3254;47.372;8.512;2023-02-02T10:57:31;5.30;;;1.40;;
6442;SDS011;3254;47.372;8.512;2023-02-02T11:02:29;3.00;;;1.57;;
6442;SDS011;3254;47.372;8.512;2023-02-02T11:04:55;2.33;;;1.60;;
6442;SDS011;3254;47.372;8.512;2023-02-02T11:07:39;1.70;;;1.60;;
6442;SDS011;3254;47.372;8.512;2023-02-02T11:10:11;1.73;;;1.30;;
6442;SDS011;3254;47.372;8.512;2023-02-02T11:12:39;2.63;;;1.20;;
6442;SDS011;3254;47.372;8.512;2023-02-02T11:15:26;3.60;;;1.75;;
6442;SDS011;3254;47.372;8.512;2023-02-02T11:17:54;1.60;;;1.50;;
6442;SDS011;3254;47.372;8.512;2023-02-02T11:20:21;3.40;;;1.40;;
6442;SDS011;3254;47.372;8.512;2023-02-02T11:22:59;2.20;;;1.47;;
6442;SDS011;3254;47.372;8.512;2023-02-02T11:25:29;3.30;;;1.10;;
6442;SDS011;3254;47.372;8.512;2023-02-02T11:28:00;2.30;;;1.23;;
6442;SDS011;3254;47.372;8.512;2023-02-02T11:30:35;3.70;;;1.27;;
6442;SDS011;3254;47.372;8.512;2023-02-02T11:33:18;1.37;;;1.27;;
6442;SDS011;3254;47.372;8.512;2023-02-02T11:35:55;2.03;;;1.23;;
6442;SDS011;3254;47.372;8.512;2023-02-02T11:38:22;3.23;;;1.50;;
6442;SDS011;3254;47.372;8.512;2023-02-02T11:41:01;4.30;;;1.63;;
6442;SDS011;3254;47.372;8.512;2023-02-02T11:43:35;3.33;;;1.60;;
6442;SDS011;3254;47.372;8.512;2023-02-02T11:46:24;1.83;;;1.20;;
6442;SDS011;3254;47.372;8.512;2023-02-02T11:49:04;1.33;;;1.10;;
6442;SDS011;3254;47.372;8.512;2023-02-02T11:51:32;3.70;;;1.10;;
6442;SDS011;3254;47.372;8.512;2023-02-02T11:56:59;1.43;;;1.20;;
6442;SDS011;3254;47.372;8.512;2023-02-02T12:04:45;6.23;;;2.13;;
6442;SDS011;3254;47.372;8.512;2023-02-02T12:07:26;3.00;;;1.67;;
6442;SDS011;3254;47.372;8.512;2023-02-02T12:09:56;10.27;;;1.50;;
6442;SDS011;3254;47.372;8.512;2023-02-02T12:12:30;2.10;;;1.20;;
6442;SDS011;3254;47.372;8.512;2023-02-02T12:18:00;1.63;;;1.10;;
6442;SDS011;3254;47.372;8.512;2023-02-02T12:26:24;3.17;;;1.17;;
6442;SDS011;3254;47.372;8.512;2023-02-02T12:31:46;4.20;;;1.10;;
6442;SDS011;3254;47.372;8.512;2023-02-02T12:34:47;3.33;;;1.37;;
6442;SDS011;3254;47.372;8.512;2023-02-02T12:37:37;1.53;;;1.27;;
6442;SDS011;3254;47.372;8.512;2023-02-02T12:40:28;1.97;;;1.40;;
6442;SDS011;3254;47.372;8.512;2023-02-02T12:46:20;1.47;;;1.37;;
6442;SDS011;3254;47.372;8.512;2023-02-02T12:57:05;1.07;;;1.00;;
6442;SDS011;3254;47.372;8.512;2023-02-02T12:59:59;1.37;;;1.00;;
6442;SDS011;3254;47.372;8.512;2023-02-02T13:05:05;2.50;;;1.63;;
6442;SDS011;3254;47.372;8.512;2023-02-02T13:07:40;3.63;;;2.03;;
6442;SDS011;3254;47.372;8.512;2023-02-02T13:12:49;1.80;;;1.07;;
6442;SDS011;3254;47.372;8.512;2023-02-02T13:15:21;7.83;;;1.20;;
6442;SDS011;3254;47.372;8.512;2023-02-02T13:17:58;3.43;;;1.10;;
6442;SDS011;3254;47.372;8.512;2023-02-02T13:20:36;3.43;;;1.57;;
6442;SDS011;3254;47.372;8.512;2023-02-02T13:23:07;3.13;;;1.20;;
6442;SDS011;3254;47.372;8.512;2023-02-02T13:25:47;1.87;;;1.50;;
6442;SDS011;3254;47.372;8.512;2023-02-02T13:28:24;1.93;;;1.00;;
6442;SDS011;3254;47.372;8.512;2023-02-02T13:31:47;2.13;;;1.10;;
6442;SDS011;3254;47.372;8.512;2023-02-02T13:36:59;2.77;;;1.10;;
6442;SDS011;3254;47.372;8.512;2023-02-02T13:39:33;4.07;;;1.23;;
6442;SDS011;3254;47.372;8.512;2023-02-02T13:42:04;1.40;;;1.10;;
6442;SDS011;3254;47.372;8.512;2023-02-02T13:44:41;1.10;;;1.00;;
6442;SDS011;3254;47.372;8.512;2023-02-02T13:47:21;5.67;;;1.00;;
6442;SDS011;3254;47.372;8.512;2023-02-02T13:49:54;5.37;;;1.10;;
6442;SDS011;3254;47.372;8.512;2023-02-02T13:52:39;1.80;;;0.80;;
6442;SDS011;3254;47.372;8.512;2023-02-02T13:55:24;2.30;;;0.70;;
6442;SDS011;3254;47.372;8.512;2023-02-02T13:58:15;1.33;;;0.70;;
6442;SDS011;3254;47.372;8.512;2023-02-02T14:01:05;1.23;;;0.43;;
6442;SDS011;3254;47.372;8.512;2023-02-02T14:03:40;1.70;;;1.10;;
6442;SDS011;3254;47.372;8.512;2023-02-02T14:06:14;1.83;;;0.80;;
6442;SDS011;3254;47.372;8.512;2023-02-02T14:08:47;2.27;;;0.70;;
6442;SDS011;3254;47.372;8.512;2023-02-02T14:11:33;2.37;;;1.00;;
6442;SDS011;3254;47.372;8.512;2023-02-02T14:14:07;8.83;;;0.70;;
6442;SDS011;3254;47.372;8.512;2023-02-02T14:17:06;1.23;;;0.60;;
6442;SDS011;3254;47.372;8.512;2023-02-02T14:24:48;1.90;;;0.90;;
6442;SDS011;3254;47.372;8.512;2023-02-02T14:45:48;1.10;;;0.70;;
6442;SDS011;3254;47.372;8.512;2023-02-02T14:48:35;1.43;;;0.90;;
6442;SDS011;3254;47.372;8.512;2023-02-02T14:51:03;3.00;;;0.67;;
6442;SDS011;3254;47.372;8.512;2023-02-02T14:53:37;0.88;;;0.60;;
6442;SDS011;3254;47.372;8.512;2023-02-02T14:56:12;1.40;;;0.70;;
6442;SDS011;3254;47.372;8.512;2023-02-02T14:58:51;2.90;;;0.90;;
6442;SDS011;3254;47.372;8.512;2023-02-02T15:06:43;2.67;;;0.73;;
6442;SDS011;3254;47.372;8.512;2023-02-02T15:20:15;2.10;;;0.80;;
6442;SDS011;3254;47.372;8.512;2023-02-02T15:28:47;1.60;;;0.60;;
6442;SDS011;3254;47.372;8.512;2023-02-02T15:30:53;4.65;;;0.98;;
6442;SDS011;3254;47.372;8.512;2023-02-02T15:33:40;1.10;;;0.60;;
6442;SDS011;3254;47.372;8.512;2023-02-02T15:36:13;1.50;;;0.77;;
6442;SDS011;3254;47.372;8.512;2023-02-02T15:38:43;1.88;;;0.57;;
6442;SDS011;3254;47.372;8.512;2023-02-02T15:41:20;2.00;;;0.80;;
6442;SDS011;3254;47.372;8.512;2023-02-02T15:43:48;2.47;;;0.55;;
6442;SDS011;3254;47.372;8.512;2023-02-02T15:46:24;4.23;;;1.00;;
6442;SDS011;3254;47.372;8.512;2023-02-02T15:51:50;1.38;;;0.80;;
6442;SDS011;3254;47.372;8.512;2023-02-02T15:56:50;6.10;;;0.90;;
6442;SDS011;3254;47.372;8.512;2023-02-02T15:59:58;1.80;;;1.10;;
6442;SDS011;3254;47.372;8.512;2023-02-02T16:04:38;5.10;;;0.87;;
6442;SDS011;3254;47.372;8.512;2023-02-02T16:07:14;2.03;;;1.00;;
6442;SDS011;3254;47.372;8.512;2023-02-02T16:09:43;1.60;;;0.70;;
6442;SDS011;3254;47.372;8.512;2023-02-02T16:12:13;4.43;;;0.70;;
6442;SDS011;3254;47.372;8.512;2023-02-02T16:14:44;2.00;;;0.80;;
6442;SDS011;3254;47.372;8.512;2023-02-02T16:17:26;2.05;;;0.70;;
6442;SDS011;3254;47.372;8.512;2023-02-02T16:20:10;2.13;;;0.70;;
6442;SDS011;3254;47.372;8.512;2023-02-02T16:22:39;0.80;;;0.70;;
6442;SDS011;3254;47.372;8.512;2023-02-02T16:25:07;4.90;;;1.00;;
6442;SDS011;3254;47.372;8.512;2023-02-02T16:27:38;4.78;;;0.80;;
6442;SDS011;3254;47.372;8.512;2023-02-02T16:30:09;1.25;;;0.80;;
6442;SDS011;3254;47.372;8.512;2023-02-02T16:32:49;4.38;;;1.27;;
6442;SDS011;3254;47.372;8.512;2023-02-02T16:41:28;1.33;;;0.70;;
6442;SDS011;3254;47.372;8.512;2023-02-02T16:43:54;2.75;;;0.90;;
6442;SDS011;3254;47.372;8.512;2023-02-02T16:49:14;1.52;;;0.98;;
6442;SDS011;3254;47.372;8.512;2023-02-02T16:51:42;2.03;;;1.20;;
6442;SDS011;3254;47.372;8.512;2023-02-02T16:54:12;2.35;;;1.10;;
6442;SDS011;3254;47.372;8.512;2023-02-02T16:56:44;4.07;;;1.40;;
6442;SDS011;3254;47.372;8.512;2023-02-02T16:59:23;4.25;;;1.05;;
6442;SDS011;3254;47.372;8.512;2023-02-02T17:01:58;2.55;;;1.00;;
6442;SDS011;3254;47.372;8.512;2023-02-02T17:04:37;2.60;;;0.77;;
6442;SDS011;3254;47.372;8.512;2023-02-02T17:07:07;3.33;;;0.77;;
6442;SDS011;3254;47.372;8.512;2023-02-02T17:09:38;1.50;;;0.80;;
6442;SDS011;3254;47.372;8.512;2023-02-02T17:12:20;2.67;;;0.95;;
6442;SDS011;3254;47.372;8.512;2023-02-02T17:14:59;6.07;;;0.88;;
6442;SDS011;3254;47.372;8.512;2023-02-02T17:17:30;2.33;;;1.33;;
6442;SDS011;3254;47.372;8.512;2023-02-02T17:19:58;4.30;;;1.10;;
6442;SDS011;3254;47.372;8.512;2023-02-02T17:22:25;1.98;;;0.75;;
6442;SDS011;3254;47.372;8.512;2023-02-02T17:24:51;2.40;;;0.88;;
6442;SDS011;3254;47.372;8.512;2023-02-02T17:27:28;1.98;;;1.25;;
6442;SDS011;3254;47.372;8.512;2023-02-02T17:29:56;5.47;;;1.30;;
6442;SDS011;3254;47.372;8.512;2023-02-02T17:32:26;5.97;;;1.02;;
6442;SDS011;3254;47.372;8.512;2023-02-02T17:34:51;6.30;;;1.13;;
6442;SDS011;3254;47.372;8.512;2023-02-02T17:37:17;0.97;;;0.80;;
6442;SDS011;3254;47.372;8.512;2023-02-02T17:39:44;2.85;;;0.93;;
6442;SDS011;3254;47.372;8.512;2023-02-02T17:42:18;3.05;;;1.20;;
6442;SDS011;3254;47.372;8.512;2023-02-02T17:44:54;4.00;;;1.45;;
6442;SDS011;3254;47.372;8.512;2023-02-02T17:47:20;1.70;;;0.90;;
6442;SDS011;3254;47.372;8.512;2023-02-02T17:49:50;21.52;;;1.20;;
6442;SDS011;3254;47.372;8.512;2023-02-02T17:52:17;2.65;;;1.30;;
6442;SDS011;3254;47.372;8.512;2023-02-02T17:54:45;3.58;;;1.20;;
6442;SDS011;3254;47.372;8.512;2023-02-02T17:57:11;1.00;;;0.90;;
6442;SDS011;3254;47.372;8.512;2023-02-02T17:59:37;6.18;;;1.10;;
6442;SDS011;3254;47.372;8.512;2023-02-02T18:02:03;2.20;;;1.00;;
6442;SDS011;3254;47.372;8.512;2023-02-02T18:04:28;5.30;;;1.30;;